Terminal Aerodrome Forecast
Issued by NWS

Home | Current Version | Previous Version | Text Only | Print | Product List | Glossary On
Versions: 1 2 3 4 5 6 7 8 9 10 11 12
289
FTUS46 KLOX 250932 AAA
TAFVNY
TAF AMD
KVNY 250932Z 2510/2606 36020G28KT P6SM SCT200
     FM251200 36010KT P6SM SCT200
     FM251600 36015G25KT P6SM BKN200
     FM260200 36012KT P6SM SCT200=

USA.gov is the U.S. government's official web portal to all federal, state and local government web resources and services.